sensor_id;sensor_type;location;lat;lon;timestamp;pressure;altitude;pressure_sealevel;temperature;humidity
75923;BME280;64602;47.542;19.090;2022-12-24T05:52:52;99811.78;;;4.70;95.39
75923;BME280;64602;47.542;19.090;2022-12-24T05:57:54;99800.88;;;4.65;95.45
75923;BME280;64602;47.542;19.090;2022-12-24T06:02:56;99807.53;;;4.63;95.90
75923;BME280;64602;47.542;19.090;2022-12-24T06:07:59;99805.25;;;4.66;96.06
75923;BME280;64602;47.542;19.090;2022-12-24T06:13:01;99796.13;;;4.67;96.12
75923;BME280;64602;47.542;19.090;2022-12-24T06:18:03;99810.81;;;4.65;96.06
75923;BME280;64602;47.542;19.090;2022-12-24T06:23:05;99802.97;;;4.63;96.05
75923;BME280;64602;47.542;19.090;2022-12-24T06:28:07;99804.94;;;4.56;95.94
75923;BME280;64602;47.542;19.090;2022-12-24T06:33:09;99811.16;;;4.57;95.84
75923;BME280;64602;47.542;19.090;2022-12-24T06:38:12;99822.56;;;4.52;95.59
75923;BME280;64602;47.542;19.090;2022-12-24T06:43:14;99817.25;;;4.64;95.67
75923;BME280;64602;47.542;19.090;2022-12-24T06:48:17;99830.50;;;4.77;96.08
75923;BME280;64602;47.542;19.090;2022-12-24T06:53:19;99846.69;;;4.89;96.22
75923;BME280;64602;47.542;19.090;2022-12-24T06:58:21;99856.03;;;4.86;96.12
75923;BME280;64602;47.542;19.090;2022-12-24T07:03:23;99862.09;;;4.82;95.91
75923;BME280;64602;47.542;19.090;2022-12-24T07:08:26;99867.38;;;4.88;95.82
75923;BME280;64602;47.542;19.090;2022-12-24T07:13:28;99871.09;;;4.87;95.79
75923;BME280;64602;47.542;19.090;2022-12-24T07:18:30;99879.09;;;4.94;95.89
75923;BME280;64602;47.542;19.090;2022-12-24T07:23:33;99884.00;;;4.97;95.78
75923;BME280;64602;47.542;19.090;2022-12-24T07:28:36;99895.22;;;4.94;95.68
75923;BME280;64602;47.542;19.090;2022-12-24T07:33:38;99880.69;;;4.83;95.59
75923;BME280;64602;47.542;19.090;2022-12-24T07:38:40;99888.16;;;4.81;95.53
75923;BME280;64602;47.542;19.090;2022-12-24T07:43:42;99896.28;;;4.93;95.61
75923;BME280;64602;47.542;19.090;2022-12-24T07:48:44;99897.09;;;4.93;95.53
75923;BME280;64602;47.542;19.090;2022-12-24T07:53:46;99922.59;;;5.21;95.69
75923;BME280;64602;47.542;19.090;2022-12-24T07:58:50;99933.37;;;5.33;95.70
75923;BME280;64602;47.542;19.090;2022-12-24T08:03:52;99940.56;;;5.39;95.50
75923;BME280;64602;47.542;19.090;2022-12-24T08:08:55;99948.22;;;5.54;95.47
75923;BME280;64602;47.542;19.090;2022-12-24T08:13:57;99952.78;;;5.65;95.33
75923;BME280;64602;47.542;19.090;2022-12-24T08:19:00;99941.91;;;5.72;95.23
75923;BME280;64602;47.542;19.090;2022-12-24T08:24:02;99959.19;;;5.94;95.04
75923;BME280;64602;47.542;19.090;2022-12-24T08:29:04;99979.56;;;5.90;94.93
75923;BME280;64602;47.542;19.090;2022-12-24T08:34:07;99997.31;;;6.10;94.78
75923;BME280;64602;47.542;19.090;2022-12-24T08:39:09;100002.94;;;6.20;94.64
75923;BME280;64602;47.542;19.090;2022-12-24T08:44:11;100015.47;;;6.26;94.42
75923;BME280;64602;47.542;19.090;2022-12-24T08:49:14;100013.13;;;6.30;94.35
75923;BME280;64602;47.542;19.090;2022-12-24T08:54:16;100009.16;;;6.44;94.20
75923;BME280;64602;47.542;19.090;2022-12-24T08:59:19;100019.25;;;6.60;93.93
75923;BME280;64602;47.542;19.090;2022-12-24T09:04:21;100045.75;;;6.87;93.43
75923;BME280;64602;47.542;19.090;2022-12-24T09:09:23;100034.56;;;7.07;92.90
75923;BME280;64602;47.542;19.090;2022-12-24T09:14:26;100038.16;;;7.24;92.43
75923;BME280;64602;47.542;19.090;2022-12-24T09:19:28;100044.69;;;7.40;92.07
75923;BME280;64602;47.542;19.090;2022-12-24T09:24:30;100060.47;;;7.60;91.62
75923;BME280;64602;47.542;19.090;2022-12-24T09:29:33;100057.06;;;7.65;91.36
75923;BME280;64602;47.542;19.090;2022-12-24T09:34:35;100062.25;;;7.83;90.76
75923;BME280;64602;47.542;19.090;2022-12-24T09:39:37;100070.19;;;8.19;90.28
75923;BME280;64602;47.542;19.090;2022-12-24T09:50:29;100070.59;;;8.78;89.46
75923;BME280;64602;47.542;19.090;2022-12-24T09:55:41;100070.91;;;8.98;88.81
75923;BME280;64602;47.542;19.090;2022-12-24T10:00:43;100060.91;;;8.99;88.79
75923;BME280;64602;47.542;19.090;2022-12-24T10:06:17;100065.25;;;9.00;88.56
75923;BME280;64602;47.542;19.090;2022-12-24T10:11:41;100077.91;;;9.16;87.93
75923;BME280;64602;47.542;19.090;2022-12-24T10:17:02;100089.78;;;9.32;86.93
75923;BME280;64602;47.542;19.090;2022-12-24T10:22:23;100082.72;;;9.53;86.09
75923;BME280;64602;47.542;19.090;2022-12-24T10:27:33;100087.31;;;9.75;85.42
75923;BME280;64602;47.542;19.090;2022-12-24T10:32:36;100090.78;;;9.97;85.28
75923;BME280;64602;47.542;19.090;2022-12-24T10:37:40;100100.84;;;10.88;82.10
75923;BME280;64602;47.542;19.090;2022-12-24T10:42:43;100088.69;;;10.59;84.01
75923;BME280;64602;47.542;19.090;2022-12-24T10:47:56;100089.41;;;10.81;81.18
75923;BME280;64602;47.542;19.090;2022-12-24T10:53:18;100086.28;;;11.00;76.96
75923;BME280;64602;47.542;19.090;2022-12-24T10:58:22;100101.84;;;11.15;76.03
75923;BME280;64602;47.542;19.090;2022-12-24T11:03:33;100090.03;;;11.46;74.91
75923;BME280;64602;47.542;19.090;2022-12-24T11:08:38;100092.06;;;11.82;72.56
75923;BME280;64602;47.542;19.090;2022-12-24T11:18:54;100117.44;;;11.97;68.84
75923;BME280;64602;47.542;19.090;2022-12-24T11:29:26;100128.87;;;13.22;62.62
75923;BME280;64602;47.542;19.090;2022-12-24T11:34:31;100137.66;;;12.83;63.10
75923;BME280;64602;47.542;19.090;2022-12-24T11:39:39;100133.59;;;12.45;62.43
75923;BME280;64602;47.542;19.090;2022-12-24T11:44:49;100145.47;;;12.13;62.61
75923;BME280;64602;47.542;19.090;2022-12-24T11:49:51;100150.03;;;11.87;63.33
75923;BME280;64602;47.542;19.090;2022-12-24T12:00:17;100133.03;;;11.65;62.53
75923;BME280;64602;47.542;19.090;2022-12-24T12:05:24;100142.53;;;11.57;63.07
75923;BME280;64602;47.542;19.090;2022-12-24T12:10:31;100141.72;;;11.62;62.91
75923;BME280;64602;47.542;19.090;2022-12-24T12:15:38;100143.94;;;11.70;62.11
75923;BME280;64602;47.542;19.090;2022-12-24T12:20:49;100148.31;;;11.71;61.70
75923;BME280;64602;47.542;19.090;2022-12-24T12:26:12;100158.63;;;11.69;61.06
75923;BME280;64602;47.542;19.090;2022-12-24T12:31:21;100170.88;;;11.76;61.18
75923;BME280;64602;47.542;19.090;2022-12-24T12:36:32;100176.06;;;11.73;62.03
75923;BME280;64602;47.542;19.090;2022-12-24T12:42:06;100168.97;;;11.72;61.86
75923;BME280;64602;47.542;19.090;2022-12-24T12:57:38;100210.69;;;11.50;62.62
75923;BME280;64602;47.542;19.090;2022-12-24T13:03:13;100214.53;;;11.54;62.07
75923;BME280;64602;47.542;19.090;2022-12-24T13:20:00;100221.31;;;11.52;63.68
75923;BME280;64602;47.542;19.090;2022-12-24T13:25:17;100229.44;;;11.47;64.08
75923;BME280;64602;47.542;19.090;2022-12-24T13:30:36;100214.72;;;11.43;64.10
75923;BME280;64602;47.542;19.090;2022-12-24T13:36:18;100217.88;;;11.24;65.35
75923;BME280;64602;47.542;19.090;2022-12-24T13:58:17;100253.50;;;10.96;66.98
75923;BME280;64602;47.542;19.090;2022-12-24T14:03:24;100258.34;;;10.94;66.94
75923;BME280;64602;47.542;19.090;2022-12-24T14:08:32;100262.12;;;10.87;67.69
75923;BME280;64602;47.542;19.090;2022-12-24T14:18:43;100272.31;;;10.53;68.72
75923;BME280;64602;47.542;19.090;2022-12-24T14:29:05;100283.81;;;10.38;69.97
75923;BME280;64602;47.542;19.090;2022-12-24T14:34:12;100293.97;;;10.26;70.39
75923;BME280;64602;47.542;19.090;2022-12-24T14:39:33;100306.31;;;10.17;70.88
75923;BME280;64602;47.542;19.090;2022-12-24T14:44:44;100302.44;;;9.91;71.91
75923;BME280;64602;47.542;19.090;2022-12-24T14:50:04;100330.72;;;9.78;72.75
75923;BME280;64602;47.542;19.090;2022-12-24T14:55:41;100348.87;;;9.60;73.40
75923;BME280;64602;47.542;19.090;2022-12-24T15:00:43;100345.91;;;9.45;74.15
75923;BME280;64602;47.542;19.090;2022-12-24T15:05:51;100341.00;;;9.25;74.67
75923;BME280;64602;47.542;19.090;2022-12-24T15:10:54;100350.62;;;9.04;75.80
75923;BME280;64602;47.542;19.090;2022-12-24T15:15:59;100356.81;;;8.88;76.49
75923;BME280;64602;47.542;19.090;2022-12-24T15:21:04;100358.84;;;8.81;77.05
75923;BME280;64602;47.542;19.090;2022-12-24T15:31:21;100378.06;;;8.67;77.94
75923;BME280;64602;47.542;19.090;2022-12-24T15:36:30;100372.78;;;8.61;78.11
75923;BME280;64602;47.542;19.090;2022-12-24T15:41:39;100382.81;;;8.48;78.41
75923;BME280;64602;47.542;19.090;2022-12-24T15:47:05;100384.34;;;8.44;78.68
75923;BME280;64602;47.542;19.090;2022-12-24T15:52:10;100399.16;;;8.42;78.51
75923;BME280;64602;47.542;19.090;2022-12-24T15:57:23;100388.69;;;8.22;78.86
75923;BME280;64602;47.542;19.090;2022-12-24T16:02:40;100408.31;;;8.05;79.78
75923;BME280;64602;47.542;19.090;2022-12-24T16:13:29;100403.13;;;7.80;80.53
75923;BME280;64602;47.542;19.090;2022-12-24T16:18:35;100414.28;;;7.84;80.56
75923;BME280;64602;47.542;19.090;2022-12-24T16:23:45;100394.13;;;7.86;80.14
75923;BME280;64602;47.542;19.090;2022-12-24T16:28:48;100414.19;;;8.02;79.45
75923;BME280;64602;47.542;19.090;2022-12-24T16:33:51;100419.97;;;8.06;79.13
75923;BME280;64602;47.542;19.090;2022-12-24T16:38:54;100406.78;;;7.98;79.17
75923;BME280;64602;47.542;19.090;2022-12-24T16:44:15;100426.06;;;7.89;79.79
75923;BME280;64602;47.542;19.090;2022-12-24T16:49:19;100421.22;;;7.80;79.71
75923;BME280;64602;47.542;19.090;2022-12-24T16:54:21;100426.25;;;7.76;79.78
75923;BME280;64602;47.542;19.090;2022-12-24T16:59:24;100423.44;;;7.71;79.50
75923;BME280;64602;47.542;19.090;2022-12-24T17:04:26;100428.13;;;7.64;79.69
75923;BME280;64602;47.542;19.090;2022-12-24T17:09:28;100440.56;;;7.53;80.14
75923;BME280;64602;47.542;19.090;2022-12-24T17:14:30;100442.75;;;7.44;80.35
75923;BME280;64602;47.542;19.090;2022-12-24T17:19:32;100449.63;;;7.28;80.97
75923;BME280;64602;47.542;19.090;2022-12-24T17:24:34;100463.06;;;7.17;81.39
75923;BME280;64602;47.542;19.090;2022-12-24T17:29:36;100471.94;;;7.05;81.98
75923;BME280;64602;47.542;19.090;2022-12-24T17:34:39;100470.44;;;6.91;82.17
75923;BME280;64602;47.542;19.090;2022-12-24T17:39:41;100474.78;;;6.74;83.10
75923;BME280;64602;47.542;19.090;2022-12-24T17:44:43;100480.50;;;6.66;83.59
75923;BME280;64602;47.542;19.090;2022-12-24T17:49:45;100493.38;;;6.63;83.73
75923;BME280;64602;47.542;19.090;2022-12-24T17:54:47;100501.87;;;6.42;84.32
75923;BME280;64602;47.542;19.090;2022-12-24T17:59:49;100493.22;;;6.33;84.90
75923;BME280;64602;47.542;19.090;2022-12-24T18:04:52;100514.78;;;6.33;84.98
75923;BME280;64602;47.542;19.090;2022-12-24T18:09:54;100520.03;;;6.28;85.26
75923;BME280;64602;47.542;19.090;2022-12-24T18:14:56;100512.06;;;6.15;85.32
75923;BME280;64602;47.542;19.090;2022-12-24T18:19:58;100532.31;;;6.24;85.92
75923;BME280;64602;47.542;19.090;2022-12-24T18:25:00;100539.97;;;6.46;86.01
75923;BME280;64602;47.542;19.090;2022-12-24T18:30:04;100536.63;;;6.50;86.31
75923;BME280;64602;47.542;19.090;2022-12-24T18:35:07;100541.19;;;6.50;86.07
75923;BME280;64602;47.542;19.090;2022-12-24T18:40:09;100551.63;;;6.46;86.26
75923;BME280;64602;47.542;19.090;2022-12-24T18:45:11;100535.44;;;6.46;86.61
75923;BME280;64602;47.542;19.090;2022-12-24T18:50:14;100537.22;;;6.52;87.20
75923;BME280;64602;47.542;19.090;2022-12-24T18:55:16;100538.78;;;6.85;87.13
75923;BME280;64602;47.542;19.090;2022-12-24T19:00:18;100558.72;;;7.02;86.69
75923;BME280;64602;47.542;19.090;2022-12-24T19:05:21;100567.59;;;7.10;86.47
75923;BME280;64602;47.542;19.090;2022-12-24T19:10:23;100565.19;;;7.20;86.48
75923;BME280;64602;47.542;19.090;2022-12-24T19:15:25;100563.09;;;7.22;86.45
75923;BME280;64602;47.542;19.090;2022-12-24T19:20:39;100561.88;;;7.18;86.54
75923;BME280;64602;47.542;19.090;2022-12-24T19:25:41;100591.12;;;7.21;86.67
75923;BME280;64602;47.542;19.090;2022-12-24T19:30:43;100601.75;;;7.16;86.78
75923;BME280;64602;47.542;19.090;2022-12-24T19:35:45;100591.56;;;6.99;87.06
75923;BME280;64602;47.542;19.090;2022-12-24T19:40:47;100601.97;;;6.96;87.37
75923;BME280;64602;47.542;19.090;2022-12-24T19:45:56;100616.41;;;6.83;87.46
75923;BME280;64602;47.542;19.090;2022-12-24T19:51:00;100612.12;;;6.75;87.79
75923;BME280;64602;47.542;19.090;2022-12-24T19:56:02;100606.50;;;6.77;87.91
75923;BME280;64602;47.542;19.090;2022-12-24T20:06:17;100624.09;;;7.23;87.00
75923;BME280;64602;47.542;19.090;2022-12-24T20:11:20;100602.91;;;7.26;86.40
75923;BME280;64602;47.542;19.090;2022-12-24T20:16:25;100619.78;;;7.22;86.38
75923;BME280;64602;47.542;19.090;2022-12-24T20:21:28;100631.44;;;7.16;86.50
75923;BME280;64602;47.542;19.090;2022-12-24T20:26:30;100630.31;;;7.05;86.74
75923;BME280;64602;47.542;19.090;2022-12-24T20:31:32;100635.72;;;7.05;86.94
75923;BME280;64602;47.542;19.090;2022-12-24T20:36:35;100628.22;;;7.07;87.10
75923;BME280;64602;47.542;19.090;2022-12-24T20:41:38;100638.72;;;7.15;86.89
75923;BME280;64602;47.542;19.090;2022-12-24T20:46:40;100622.53;;;7.15;86.70
75923;BME280;64602;47.542;19.090;2022-12-24T20:51:43;100639.88;;;7.26;86.48
75923;BME280;64602;47.542;19.090;2022-12-24T20:56:45;100632.66;;;7.20;86.22
75923;BME280;64602;47.542;19.090;2022-12-24T21:01:58;100649.56;;;7.09;86.47
75923;BME280;64602;47.542;19.090;2022-12-24T21:07:01;100653.03;;;6.97;86.75
75923;BME280;64602;47.542;19.090;2022-12-24T21:12:03;100658.53;;;6.84;87.00
75923;BME280;64602;47.542;19.090;2022-12-24T21:17:24;100656.41;;;6.68;87.49
75923;BME280;64602;47.542;19.090;2022-12-24T21:22:26;100655.53;;;6.42;87.72
75923;BME280;64602;47.542;19.090;2022-12-24T21:27:29;100666.03;;;6.50;88.25
75923;BME280;64602;47.542;19.090;2022-12-24T21:32:31;100671.81;;;6.29;88.19
75923;BME280;64602;47.542;19.090;2022-12-24T21:37:33;100686.56;;;6.19;88.43
75923;BME280;64602;47.542;19.090;2022-12-24T21:42:35;100703.38;;;6.22;88.89
75923;BME280;64602;47.542;19.090;2022-12-24T21:47:38;100702.22;;;6.36;88.88
75923;BME280;64602;47.542;19.090;2022-12-24T21:52:40;100714.41;;;6.45;88.86
75923;BME280;64602;47.542;19.090;2022-12-24T21:57:42;100692.91;;;6.38;88.83
75923;BME280;64602;47.542;19.090;2022-12-24T22:02:55;100713.88;;;6.30;88.83
75923;BME280;64602;47.542;19.090;2022-12-24T22:07:58;100706.88;;;6.22;88.97
75923;BME280;64602;47.542;19.090;2022-12-24T22:13:19;100714.59;;;6.12;88.94
75923;BME280;64602;47.542;19.090;2022-12-24T22:18:23;100727.09;;;5.99;89.47
75923;BME280;64602;47.542;19.090;2022-12-24T22:23:25;100728.16;;;5.85;89.67
75923;BME280;64602;47.542;19.090;2022-12-24T22:28:27;100732.72;;;5.78;89.56
75923;BME280;64602;47.542;19.090;2022-12-24T22:33:30;100720.72;;;5.67;89.84
75923;BME280;64602;47.542;19.090;2022-12-24T22:38:33;100728.19;;;5.65;89.82
75923;BME280;64602;47.542;19.090;2022-12-24T22:43:35;100735.44;;;5.58;90.04
75923;BME280;64602;47.542;19.090;2022-12-24T22:48:39;100740.84;;;5.58;90.39
75923;BME280;64602;47.542;19.090;2022-12-24T22:53:42;100734.66;;;5.44;89.95
75923;BME280;64602;47.542;19.090;2022-12-24T22:58:45;100732.16;;;5.49;89.83
75923;BME280;64602;47.542;19.090;2022-12-24T23:03:47;100731.97;;;5.38;90.11
75923;BME280;64602;47.542;19.090;2022-12-24T23:08:49;100733.03;;;5.37;90.07
75923;BME280;64602;47.542;19.090;2022-12-24T23:13:51;100739.44;;;5.42;90.30
75923;BME280;64602;47.542;19.090;2022-12-24T23:19:12;100746.63;;;5.62;90.61
75923;BME280;64602;47.542;19.090;2022-12-24T23:24:14;100727.16;;;5.60;89.99
75923;BME280;64602;47.542;19.090;2022-12-24T23:29:17;100735.25;;;5.60;89.90
75923;BME280;64602;47.542;19.090;2022-12-24T23:34:19;100742.88;;;5.69;90.17
75923;BME280;64602;47.542;19.090;2022-12-24T23:39:21;100749.06;;;5.83;90.10
75923;BME280;64602;47.542;19.090;2022-12-24T23:44:24;100745.97;;;5.79;89.63
75923;BME280;64602;47.542;19.090;2022-12-24T23:49:33;100737.69;;;5.74;89.40
75923;BME280;64602;47.542;19.090;2022-12-24T23:54:35;100740.00;;;5.64;89.55
75923;BME280;64602;47.542;19.090;2022-12-24T23:59:37;100747.66;;;5.61;89.84
